• Join FlightAware (Why Join?)
  • Login
  • US Flag 
09:04PM EDT


 

Airport Tracker/Info


-or-


 

Live Flight TrackerFlight Track Log ✈ N716ES ✈ 24-Apr-2014 ✈ KIAG - KSDC

Flight Track Log - Related Links

Times and Time Zones

All times are in EDT time to prevent confusion due to time zone crossing. See the N716ES flight status page for this flight to view local times or setup timezone preferences in your user account.

Time Position Orientation Groundspeed Altitude Reporting Facility
EDT Latitude Longitude Course Direction KTS MPH feet Rate Location/Type
03:12PM 43.1156 -78.2553 90° East 128 147 5,600  Level Cleveland Center
03:13PM 43.1172 -78.2408 81° East 129 148 5,600  Level Cleveland Center
03:13PM 43.1189 -78.2039 86° East 131 151 5,600  Level Cleveland Center
03:14PM 43.1335 -78.6049 84° East  Level Estimated
03:14PM 43.1186 -78.1911 92° East 129 148 5,600  Level Cleveland Center
03:14PM 43.1197 -78.1547 88° East 129 148 5,600  Level Cleveland Center
03:15PM 43.1336 -78.5477 90° East  Level FlightAware Approximate
03:15PM 43.1206 -78.1422 85° East 129 148 5,600  Level Cleveland Center
03:15PM 43.1228 -78.1064 85° East 130 150 5,600  Level Cleveland Center
03:16PM 43.1336 -78.4905 90° East  Level FlightAware Approximate
03:16PM 43.1242 -78.0839 85° East 129 148 5,600  Level Cleveland Center
03:16PM 43.1256 -78.0578 86° East 128 147 5,500 -120 Descending Cleveland Center
03:17PM 43.1336 -78.4334 90° East  Level FlightAware Approximate
03:17PM 43.1272 -78.0350 84° East 129 148 5,500  Level Cleveland Center
03:18PM 43.1336 -78.3762 90° East  Level FlightAware Approximate
03:18PM 43.1283 -78.0092 87° East 129 148 5,500  Level Cleveland Center
03:18PM 43.1294 -77.9864 86° East 129 148 5,600 60 Climbing Cleveland Center
03:19PM 43.1333 -77.9611 78° East 125 144 5,600 -120 Level Cleveland Center
03:20PM 43.1367 -77.9069 85° East 127 146 5,500 -60 Descending Cleveland Center
03:21PM 43.1417 -77.8592 82° East 130 150 5,500  Level Cleveland Center
03:22PM 43.1444 -77.8106 86° East 128 147 5,600  Climbing Cleveland Center
03:23PM 43.1486 -77.7653 83° East 128 147 5,600 -60 Level Cleveland Center
03:24PM 43.1556 -77.7178 79° East 128 147 5,500 -120 Descending Cleveland Center
03:26PM 43.1715 -77.6103 78° East  Level FlightAware Approximate
03:33PM 43.2167 -77.2205 90° East  Level FlightAware Approximate
03:34PM 43.2237 -77.1650 75° East  Level FlightAware Approximate
03:35PM 43.2333 -77.1167 75° East  Level FlightAware Approximate
03:36PM 43.2346 -77.1195 262° West  Level Estimated
03:37PM 43.2346 -77.1195 262° West  Level Estimated
03:38PM 43.2346 -77.1195 270° West  Level Estimated
03:39PM 43.2346 -77.1195 264° West  Level Estimated
03:40PM 43.2346 -77.1195 264° West  Level Estimated
03:41PM 43.2346 -77.1195 264° West  Level Estimated
03:42PM 43.2346 -77.1195 264° West  Level Estimated
03:43PM 43.2346 -77.1195 264° West  Level Estimated
03:44PM 43.2333 -77.1167 75° East  Level FlightAware Approximate
03:45PM 43.2346 -77.1195 262° West  Level Estimated
03:46PM 43.2346 -77.1195 262° West  Level Estimated
03:47PM 43.2346 -77.1195 270° West  Level Estimated
03:48PM 43.2346 -77.1195 264° West  Level Estimated
03:49PM 43.2346 -77.1195 264° West  Level Estimated
03:50PM 43.2346 -77.1195 264° West  Level Estimated
03:51PM 43.2346 -77.1195 264° West  Level Estimated
03:52PM 43.2346 -77.1195 264° West  Level Estimated
03:53PM 43.2333 -77.1167 75° East  Level FlightAware Approximate
03:54PM 43.2346 -77.1195 262° West  Level Estimated
03:55PM 43.2346 -77.1195 262° West  Level Estimated
03:56PM 43.2346 -77.1195 270° West  Level Estimated
03:57PM 43.2346 -77.1195 264° West  Level Estimated
03:58PM 43.2346 -77.1195 264° West  Level Estimated
03:59PM 43.2346 -77.1195 264° West  Level Estimated
04:00PM 43.2346 -77.1195 264° West  Level Estimated
04:01PM 43.2346 -77.1195 264° West  Level Estimated
04:02PM 43.2333 -77.1167 75° East  Level FlightAware Approximate
04:03PM 43.2346 -77.1195 262° West  Level Estimated
04:04PM 43.2346 -77.1195 262° West  Level Estimated
04:05PM 43.2346 -77.1195 270° West  Level Estimated
04:06PM 43.2346 -77.1195 264° West  Level Estimated
04:07PM 43.2346 -77.1195 264° West  Level Estimated
04:08PM 43.2346 -77.1195 264° West  Level Estimated
04:09PM 43.2346 -77.1195 264° West  Level Estimated
04:10PM 43.2346 -77.1195 264° West  Level Estimated
04:11PM 43.2333 -77.1167 75° East  Level FlightAware Approximate
04:12PM 43.2346 -77.1195 262° West  Level Estimated
04:13PM 43.2346 -77.1195 262° West  Level Estimated
04:14PM 43.2346 -77.1195 270° West  Level Estimated
04:15PM 43.2346 -77.1195 264° West  Level Estimated
04:16PM 43.2346 -77.1195 264° West  Level Estimated
04:17PM 43.2346 -77.1195 264° West  Level Estimated
04:18PM 43.2346 -77.1195 264° West  Level Estimated
04:19PM 43.2346 -77.1195 264° West  Level Estimated
04:20PM 43.2333 -77.1167 75° East  Level FlightAware Approximate
04:21PM 43.2346 -77.1195 262° West  Level Estimated
04:22PM 43.2346 -77.1195 262° West  Level Estimated
04:23PM 43.2346 -77.1195 270° West  Level Estimated
04:24PM 43.2346 -77.1195 264° West  Level Estimated
04:25PM 43.2346 -77.1195 264° West  Level Estimated
04:26PM 43.2346 -77.1195 264° West  Level Estimated
04:27PM 43.2346 -77.1195 264° West  Level Estimated
04:28PM 43.2346 -77.1195 264° West  Level Estimated
04:29PM 43.2333 -77.1167 75° East  Level FlightAware Approximate
04:30PM 43.2346 -77.1195 262° West  Level Estimated
04:31PM 43.2346 -77.1195 262° West  Level Estimated
04:32PM 43.2346 -77.1195 270° West  Level Estimated
04:33PM 43.2346 -77.1195 264° West  Level Estimated
04:34PM 43.2346 -77.1195 264° West  Level Estimated
04:35PM 43.2346 -77.1195 264° West  Level Estimated
04:36PM 43.2346 -77.1195 264° West  Level Estimated
04:37PM 43.2346 -77.1195 264° West  Level Estimated
04:38PM 43.2333 -77.1167 75° East  Level FlightAware Approximate
04:39PM 43.2346 -77.1195 262° West  Level Estimated
04:40PM 43.2346 -77.1195 262° West  Level Estimated
04:41PM 43.2346 -77.1195 270° West  Level Estimated
04:42PM 43.2346 -77.1195 264° West  Level Estimated
04:43PM 43.2346 -77.1195 264° West  Level Estimated
04:44PM 43.2346 -77.1195 264° West  Level Estimated
04:45PM 43.2346 -77.1195 264° West  Level Estimated
04:46PM 43.2346 -77.1195 264° West  Level Estimated
04:47PM 43.2333 -77.1167 75° East  Level FlightAware Approximate
04:48PM 43.2346 -77.1195 262° West  Level Estimated
04:49PM 43.2346 -77.1195 262° West  Level Estimated
04:50PM 43.2346 -77.1195 270° West  Level Estimated
04:51PM 43.2346 -77.1195 264° West  Level Estimated
04:52PM 43.2346 -77.1195 264° West  Level Estimated
04:53PM 43.2346 -77.1195 264° West  Level Estimated
04:54PM 43.2346 -77.1195 264° West  Level Estimated
04:55PM 43.2346 -77.1195 264° West  Level Estimated